aviador You're here:

KELN Decoded Metar

ELLENSBURG in WA, USA
Report Time2017-06-25 12:53:00
UTC Time2017-06-25 13:48:20
Flight Rules vfr VFR
Wind070° at 06 kt
W.Decomp.*RWY 07: 5.8 kt HW 1.7 kt LCW
RWY 11: 3.4 kt HW 5 kt LCW
W.Rank070° ranks 8
Current wind is above 070° avg. (4.6)
Visibility9999 m
Phenomena:N/A
Clouds:N/A
Expected CloudBase > 2,400 ft AGL from Temp-Dew spread
CeilingNone
Temp12°C (ISA 0)
Dew Point06°C (67% RH)
AAT8.9°C
QNH1019 hPa
Density Alt1,680 ft
Elevation1,703 ft
Report Wrong Elevation
Raw Report
METAR KELN 251253Z AUTO 07006KT 10SM CLR 12/06 A3009 RMK AO2 SLP177
T01170056=

Extra information for KELN:More info

Metar Taf Metar & Taf Last 4 Metars F.Rules Stats Wind Profile Meteogram Temp Stats Airport Information Weather charts Add Link Nearby VenuesMetar ALERT Operation Metar Decoded Social comments

AIRNAV info for KELN